sensor_id;sensor_type;location;lat;lon;timestamp;P1;durP1;ratioP1;P2;durP2;ratioP2
62736;SDS011;48787;46.494;-1.782;2022-09-04T00:00:37;1.02;;;0.80;;
62736;SDS011;48787;46.494;-1.782;2022-09-04T00:11:03;3.35;;;0.80;;
62736;SDS011;48787;46.494;-1.782;2022-09-04T00:13:43;1.70;;;1.00;;
62736;SDS011;48787;46.494;-1.782;2022-09-04T00:16:17;2.58;;;1.10;;
62736;SDS011;48787;46.494;-1.782;2022-09-04T00:18:45;2.60;;;1.00;;
62736;SDS011;48787;46.494;-1.782;2022-09-04T00:23:51;0.88;;;0.80;;
62736;SDS011;48787;46.494;-1.782;2022-09-04T00:31:52;2.65;;;0.90;;
62736;SDS011;48787;46.494;-1.782;2022-09-04T00:36:55;1.40;;;0.93;;
62736;SDS011;48787;46.494;-1.782;2022-09-04T00:39:30;3.13;;;0.90;;
62736;SDS011;48787;46.494;-1.782;2022-09-04T00:58:00;2.25;;;0.88;;
62736;SDS011;48787;46.494;-1.782;2022-09-04T01:00:29;0.98;;;0.70;;
62736;SDS011;48787;46.494;-1.782;2022-09-04T01:02:57;0.90;;;0.88;;
62736;SDS011;48787;46.494;-1.782;2022-09-04T01:11:13;2.33;;;0.93;;
62736;SDS011;48787;46.494;-1.782;2022-09-04T01:16:10;1.73;;;1.00;;
62736;SDS011;48787;46.494;-1.782;2022-09-04T01:18:42;1.33;;;0.82;;
62736;SDS011;48787;46.494;-1.782;2022-09-04T01:21:13;1.77;;;0.82;;
62736;SDS011;48787;46.494;-1.782;2022-09-04T01:23:43;1.40;;;0.80;;
62736;SDS011;48787;46.494;-1.782;2022-09-04T01:36:44;1.20;;;0.77;;
62736;SDS011;48787;46.494;-1.782;2022-09-04T01:39:13;1.63;;;0.88;;
62736;SDS011;48787;46.494;-1.782;2022-09-04T01:44:06;1.08;;;0.90;;
62736;SDS011;48787;46.494;-1.782;2022-09-04T01:46:54;0.65;;;0.63;;
62736;SDS011;48787;46.494;-1.782;2022-09-04T01:54:39;1.15;;;0.70;;
62736;SDS011;48787;46.494;-1.782;2022-09-04T02:04:53;1.13;;;0.80;;
62736;SDS011;48787;46.494;-1.782;2022-09-04T02:07:43;1.63;;;0.90;;
62736;SDS011;48787;46.494;-1.782;2022-09-04T02:12:46;2.92;;;0.90;;
62736;SDS011;48787;46.494;-1.782;2022-09-04T02:17:42;1.63;;;0.67;;
62736;SDS011;48787;46.494;-1.782;2022-09-04T02:30:25;2.33;;;0.80;;
62736;SDS011;48787;46.494;-1.782;2022-09-04T02:32:57;0.70;;;0.70;;
62736;SDS011;48787;46.494;-1.782;2022-09-04T02:35:46;1.15;;;0.50;;
62736;SDS011;48787;46.494;-1.782;2022-09-04T02:46:25;2.42;;;0.70;;
62736;SDS011;48787;46.494;-1.782;2022-09-04T02:48:57;1.58;;;0.80;;
62736;SDS011;48787;46.494;-1.782;2022-09-04T02:54:07;1.73;;;0.88;;
62736;SDS011;48787;46.494;-1.782;2022-09-04T02:56:42;1.70;;;0.85;;
62736;SDS011;48787;46.494;-1.782;2022-09-04T03:01:49;1.85;;;0.80;;
62736;SDS011;48787;46.494;-1.782;2022-09-04T03:06:51;1.35;;;0.85;;
62736;SDS011;48787;46.494;-1.782;2022-09-04T03:12:04;2.08;;;0.80;;
62736;SDS011;48787;46.494;-1.782;2022-09-04T03:14:41;1.60;;;0.80;;
62736;SDS011;48787;46.494;-1.782;2022-09-04T03:17:10;2.85;;;0.82;;
62736;SDS011;48787;46.494;-1.782;2022-09-04T03:19:42;2.92;;;0.70;;
62736;SDS011;48787;46.494;-1.782;2022-09-04T03:22:17;2.78;;;1.05;;
62736;SDS011;48787;46.494;-1.782;2022-09-04T03:27:14;1.45;;;0.80;;
62736;SDS011;48787;46.494;-1.782;2022-09-04T03:32:25;1.25;;;0.60;;
62736;SDS011;48787;46.494;-1.782;2022-09-04T03:37:28;1.65;;;0.77;;
62736;SDS011;48787;46.494;-1.782;2022-09-04T03:42:44;2.33;;;0.90;;
62736;SDS011;48787;46.494;-1.782;2022-09-04T03:55:29;2.50;;;0.88;;
62736;SDS011;48787;46.494;-1.782;2022-09-04T04:00:23;1.17;;;0.82;;
62736;SDS011;48787;46.494;-1.782;2022-09-04T04:05:55;1.95;;;0.82;;
62736;SDS011;48787;46.494;-1.782;2022-09-04T04:08:32;2.45;;;0.80;;
62736;SDS011;48787;46.494;-1.782;2022-09-04T04:29:06;1.88;;;0.95;;
62736;SDS011;48787;46.494;-1.782;2022-09-04T04:34:38;2.75;;;0.93;;
62736;SDS011;48787;46.494;-1.782;2022-09-04T04:37:12;1.05;;;0.77;;
62736;SDS011;48787;46.494;-1.782;2022-09-04T04:40:23;2.20;;;0.80;;
62736;SDS011;48787;46.494;-1.782;2022-09-04T04:42:34;3.00;;;0.90;;
62736;SDS011;48787;46.494;-1.782;2022-09-04T04:53:24;1.77;;;0.70;;
62736;SDS011;48787;46.494;-1.782;2022-09-04T05:03:55;1.00;;;0.65;;
62736;SDS011;48787;46.494;-1.782;2022-09-04T05:06:38;1.17;;;0.90;;
62736;SDS011;48787;46.494;-1.782;2022-09-04T05:35:12;0.90;;;0.85;;
62736;SDS011;48787;46.494;-1.782;2022-09-04T05:53:10;0.93;;;0.80;;
62736;SDS011;48787;46.494;-1.782;2022-09-04T06:06:13;0.90;;;0.80;;
62736;SDS011;48787;46.494;-1.782;2022-09-04T06:22:06;1.98;;;0.80;;
62736;SDS011;48787;46.494;-1.782;2022-09-04T06:30:00;1.13;;;0.98;;
62736;SDS011;48787;46.494;-1.782;2022-09-04T07:01:48;2.25;;;1.00;;
62736;SDS011;48787;46.494;-1.782;2022-09-04T07:11:49;4.70;;;1.20;;
62736;SDS011;48787;46.494;-1.782;2022-09-04T07:17:51;2.38;;;1.60;;
62736;SDS011;48787;46.494;-1.782;2022-09-04T07:27:51;2.33;;;1.48;;
62736;SDS011;48787;46.494;-1.782;2022-09-04T07:30:19;3.38;;;1.08;;
62736;SDS011;48787;46.494;-1.782;2022-09-04T07:32:52;4.57;;;1.35;;
62736;SDS011;48787;46.494;-1.782;2022-09-04T07:35:25;4.38;;;1.40;;
62736;SDS011;48787;46.494;-1.782;2022-09-04T07:40:24;6.03;;;1.40;;
62736;SDS011;48787;46.494;-1.782;2022-09-04T07:42:56;5.85;;;2.03;;
62736;SDS011;48787;46.494;-1.782;2022-09-04T08:01:50;6.72;;;1.85;;
62736;SDS011;48787;46.494;-1.782;2022-09-04T08:06:56;4.15;;;1.58;;
62736;SDS011;48787;46.494;-1.782;2022-09-04T08:09:31;2.55;;;1.25;;
62736;SDS011;48787;46.494;-1.782;2022-09-04T08:14:52;4.72;;;1.20;;
62736;SDS011;48787;46.494;-1.782;2022-09-04T08:22:27;9.05;;;1.95;;
62736;SDS011;48787;46.494;-1.782;2022-09-04T08:25:03;4.60;;;1.77;;
62736;SDS011;48787;46.494;-1.782;2022-09-04T08:27:45;4.13;;;1.25;;
62736;SDS011;48787;46.494;-1.782;2022-09-04T08:30:18;7.60;;;1.30;;
62736;SDS011;48787;46.494;-1.782;2022-09-04T08:35:34;7.38;;;1.52;;
62736;SDS011;48787;46.494;-1.782;2022-09-04T09:04:26;5.15;;;1.90;;
62736;SDS011;48787;46.494;-1.782;2022-09-04T09:12:20;6.57;;;1.55;;
62736;SDS011;48787;46.494;-1.782;2022-09-04T09:17:51;10.60;;;1.98;;
62736;SDS011;48787;46.494;-1.782;2022-09-04T09:26:18;9.90;;;2.15;;
62736;SDS011;48787;46.494;-1.782;2022-09-04T09:31:20;9.40;;;2.45;;
62736;SDS011;48787;46.494;-1.782;2022-09-04T09:52:43;17.88;;;3.20;;
62736;SDS011;48787;46.494;-1.782;2022-09-04T10:03:37;14.57;;;3.15;;
62736;SDS011;48787;46.494;-1.782;2022-09-04T10:08:53;33.70;;;5.10;;
62736;SDS011;48787;46.494;-1.782;2022-09-04T10:17:13;18.17;;;4.07;;
62736;SDS011;48787;46.494;-1.782;2022-09-04T10:24:52;20.40;;;3.60;;
62736;SDS011;48787;46.494;-1.782;2022-09-04T10:30:12;22.35;;;3.67;;
62736;SDS011;48787;46.494;-1.782;2022-09-04T10:45:52;17.63;;;3.05;;
62736;SDS011;48787;46.494;-1.782;2022-09-04T10:51:02;12.13;;;3.17;;
62736;SDS011;48787;46.494;-1.782;2022-09-04T10:58:39;28.38;;;4.57;;
62736;SDS011;48787;46.494;-1.782;2022-09-04T11:09:18;25.73;;;3.97;;
62736;SDS011;48787;46.494;-1.782;2022-09-04T11:11:59;18.27;;;3.42;;
62736;SDS011;48787;46.494;-1.782;2022-09-04T11:26:09;24.60;;;3.65;;
62736;SDS011;48787;46.494;-1.782;2022-09-04T11:36:12;21.75;;;3.53;;
62736;SDS011;48787;46.494;-1.782;2022-09-04T12:12:27;23.60;;;3.78;;
62736;SDS011;48787;46.494;-1.782;2022-09-04T12:15:03;24.65;;;3.28;;
62736;SDS011;48787;46.494;-1.782;2022-09-04T12:20:09;21.02;;;3.33;;
62736;SDS011;48787;46.494;-1.782;2022-09-04T12:25:31;23.65;;;3.22;;
62736;SDS011;48787;46.494;-1.782;2022-09-04T12:46:30;12.48;;;2.13;;
62736;SDS011;48787;46.494;-1.782;2022-09-04T12:51:51;22.48;;;2.70;;
62736;SDS011;48787;46.494;-1.782;2022-09-04T13:12:44;15.93;;;2.20;;
62736;SDS011;48787;46.494;-1.782;2022-09-04T13:17:50;13.43;;;2.50;;
62736;SDS011;48787;46.494;-1.782;2022-09-04T13:20:27;9.73;;;2.03;;
62736;SDS011;48787;46.494;-1.782;2022-09-04T13:22:57;19.15;;;2.10;;
62736;SDS011;48787;46.494;-1.782;2022-09-04T13:31:03;9.15;;;2.35;;
62736;SDS011;48787;46.494;-1.782;2022-09-04T13:38:54;14.00;;;2.63;;
62736;SDS011;48787;46.494;-1.782;2022-09-04T13:46:49;8.20;;;1.83;;
62736;SDS011;48787;46.494;-1.782;2022-09-04T13:49:17;7.07;;;1.42;;
62736;SDS011;48787;46.494;-1.782;2022-09-04T13:51:49;7.13;;;1.80;;
62736;SDS011;48787;46.494;-1.782;2022-09-04T13:54:37;6.65;;;1.65;;
62736;SDS011;48787;46.494;-1.782;2022-09-04T13:59:30;7.28;;;1.63;;
62736;SDS011;48787;46.494;-1.782;2022-09-04T14:01:57;4.97;;;1.45;;
62736;SDS011;48787;46.494;-1.782;2022-09-04T14:04:26;7.72;;;1.50;;
62736;SDS011;48787;46.494;-1.782;2022-09-04T14:06:55;3.03;;;1.23;;
62736;SDS011;48787;46.494;-1.782;2022-09-04T14:09:30;4.53;;;1.50;;
62736;SDS011;48787;46.494;-1.782;2022-09-04T14:17:08;7.68;;;1.58;;
62736;SDS011;48787;46.494;-1.782;2022-09-04T14:22:07;5.28;;;1.45;;
62736;SDS011;48787;46.494;-1.782;2022-09-04T14:30:05;4.43;;;1.20;;
62736;SDS011;48787;46.494;-1.782;2022-09-04T14:32:35;4.90;;;1.08;;
62736;SDS011;48787;46.494;-1.782;2022-09-04T14:40:37;7.55;;;1.50;;
62736;SDS011;48787;46.494;-1.782;2022-09-04T14:48:19;4.60;;;1.30;;
62736;SDS011;48787;46.494;-1.782;2022-09-04T14:50:54;4.07;;;1.40;;
62736;SDS011;48787;46.494;-1.782;2022-09-04T14:53:31;5.63;;;1.10;;
62736;SDS011;48787;46.494;-1.782;2022-09-04T14:56:41;10.00;;;1.40;;
62736;SDS011;48787;46.494;-1.782;2022-09-04T14:58:54;6.07;;;1.40;;
62736;SDS011;48787;46.494;-1.782;2022-09-04T15:01:23;2.38;;;1.23;;
62736;SDS011;48787;46.494;-1.782;2022-09-04T15:04:35;4.57;;;1.35;;
62736;SDS011;48787;46.494;-1.782;2022-09-04T15:06:44;4.10;;;1.25;;
62736;SDS011;48787;46.494;-1.782;2022-09-04T15:11:49;4.50;;;1.38;;
62736;SDS011;48787;46.494;-1.782;2022-09-04T15:14:24;2.65;;;1.00;;
62736;SDS011;48787;46.494;-1.782;2022-09-04T15:19:42;2.65;;;1.20;;
62736;SDS011;48787;46.494;-1.782;2022-09-04T15:27:21;2.47;;;1.10;;
62736;SDS011;48787;46.494;-1.782;2022-09-04T15:32:38;4.82;;;1.30;;
62736;SDS011;48787;46.494;-1.782;2022-09-04T15:37:42;4.28;;;1.30;;
62736;SDS011;48787;46.494;-1.782;2022-09-04T15:40:21;3.45;;;1.17;;
62736;SDS011;48787;46.494;-1.782;2022-09-04T15:42:56;3.72;;;1.30;;
62736;SDS011;48787;46.494;-1.782;2022-09-04T15:45:35;5.15;;;1.40;;
62736;SDS011;48787;46.494;-1.782;2022-09-04T15:48:19;3.47;;;1.33;;
62736;SDS011;48787;46.494;-1.782;2022-09-04T15:53:32;3.60;;;1.20;;
62736;SDS011;48787;46.494;-1.782;2022-09-04T15:56:06;5.35;;;1.40;;
62736;SDS011;48787;46.494;-1.782;2022-09-04T16:01:07;2.85;;;1.33;;
62736;SDS011;48787;46.494;-1.782;2022-09-04T16:03:53;4.30;;;1.60;;
62736;SDS011;48787;46.494;-1.782;2022-09-04T16:06:29;4.55;;;1.27;;
62736;SDS011;48787;46.494;-1.782;2022-09-04T16:14:07;7.30;;;1.90;;
62736;SDS011;48787;46.494;-1.782;2022-09-04T16:16:40;7.55;;;1.75;;
62736;SDS011;48787;46.494;-1.782;2022-09-04T16:19:13;4.55;;;1.63;;
62736;SDS011;48787;46.494;-1.782;2022-09-04T16:26:54;4.65;;;1.38;;
62736;SDS011;48787;46.494;-1.782;2022-09-04T16:29:28;4.47;;;1.50;;
62736;SDS011;48787;46.494;-1.782;2022-09-04T16:31:56;5.07;;;1.40;;
62736;SDS011;48787;46.494;-1.782;2022-09-04T16:34:24;3.08;;;1.33;;
62736;SDS011;48787;46.494;-1.782;2022-09-04T16:36:57;5.60;;;1.40;;
62736;SDS011;48787;46.494;-1.782;2022-09-04T16:39:27;4.82;;;1.45;;
62736;SDS011;48787;46.494;-1.782;2022-09-04T16:41:57;7.57;;;1.60;;
62736;SDS011;48787;46.494;-1.782;2022-09-04T16:44:26;9.10;;;1.80;;
62736;SDS011;48787;46.494;-1.782;2022-09-04T16:51:57;5.80;;;1.50;;
62736;SDS011;48787;46.494;-1.782;2022-09-04T16:54:43;3.85;;;1.52;;
62736;SDS011;48787;46.494;-1.782;2022-09-04T16:57:13;3.58;;;1.70;;
62736;SDS011;48787;46.494;-1.782;2022-09-04T16:59:42;5.30;;;2.05;;
62736;SDS011;48787;46.494;-1.782;2022-09-04T17:04:51;4.22;;;1.67;;
62736;SDS011;48787;46.494;-1.782;2022-09-04T17:07:20;6.43;;;1.63;;
62736;SDS011;48787;46.494;-1.782;2022-09-04T17:10:08;2.55;;;1.38;;
62736;SDS011;48787;46.494;-1.782;2022-09-04T17:12:54;5.35;;;1.90;;
62736;SDS011;48787;46.494;-1.782;2022-09-04T17:17:48;3.80;;;1.50;;
62736;SDS011;48787;46.494;-1.782;2022-09-04T17:33:10;5.22;;;1.60;;
62736;SDS011;48787;46.494;-1.782;2022-09-04T17:35:48;3.97;;;1.88;;
62736;SDS011;48787;46.494;-1.782;2022-09-04T17:38:18;3.23;;;1.83;;
62736;SDS011;48787;46.494;-1.782;2022-09-04T17:43:37;6.80;;;1.80;;
62736;SDS011;48787;46.494;-1.782;2022-09-04T17:46:11;3.77;;;1.90;;
62736;SDS011;48787;46.494;-1.782;2022-09-04T17:48:42;3.72;;;1.55;;
62736;SDS011;48787;46.494;-1.782;2022-09-04T17:51:17;8.98;;;1.70;;
62736;SDS011;48787;46.494;-1.782;2022-09-04T17:53:48;4.05;;;1.63;;
62736;SDS011;48787;46.494;-1.782;2022-09-04T17:56:20;4.05;;;1.67;;
62736;SDS011;48787;46.494;-1.782;2022-09-04T17:58:53;5.07;;;1.80;;
62736;SDS011;48787;46.494;-1.782;2022-09-04T18:01:24;2.58;;;1.70;;
62736;SDS011;48787;46.494;-1.782;2022-09-04T18:06:21;4.43;;;1.77;;
62736;SDS011;48787;46.494;-1.782;2022-09-04T18:08:55;4.55;;;1.90;;
62736;SDS011;48787;46.494;-1.782;2022-09-04T18:31:50;5.70;;;2.10;;
62736;SDS011;48787;46.494;-1.782;2022-09-04T18:34:28;4.18;;;2.03;;
62736;SDS011;48787;46.494;-1.782;2022-09-04T18:39:28;5.78;;;2.40;;
62736;SDS011;48787;46.494;-1.782;2022-09-04T18:44:22;5.63;;;2.30;;
62736;SDS011;48787;46.494;-1.782;2022-09-04T18:46:51;10.00;;;2.17;;
62736;SDS011;48787;46.494;-1.782;2022-09-04T18:49:17;5.75;;;2.15;;
62736;SDS011;48787;46.494;-1.782;2022-09-04T18:51:50;5.53;;;2.05;;
62736;SDS011;48787;46.494;-1.782;2022-09-04T18:54:19;5.72;;;1.80;;
62736;SDS011;48787;46.494;-1.782;2022-09-04T18:56:49;3.85;;;1.67;;
62736;SDS011;48787;46.494;-1.782;2022-09-04T18:59:18;6.47;;;1.90;;
62736;SDS011;48787;46.494;-1.782;2022-09-04T19:01:50;9.98;;;2.08;;
62736;SDS011;48787;46.494;-1.782;2022-09-04T19:09:40;6.03;;;1.95;;
62736;SDS011;48787;46.494;-1.782;2022-09-04T19:12:08;5.50;;;1.73;;
62736;SDS011;48787;46.494;-1.782;2022-09-04T19:14:39;5.35;;;1.75;;
62736;SDS011;48787;46.494;-1.782;2022-09-04T19:17:10;5.07;;;1.60;;
62736;SDS011;48787;46.494;-1.782;2022-09-04T19:20:21;5.68;;;1.92;;
62736;SDS011;48787;46.494;-1.782;2022-09-04T19:22:36;6.45;;;1.60;;
62736;SDS011;48787;46.494;-1.782;2022-09-04T19:25:16;9.55;;;1.23;;
62736;SDS011;48787;46.494;-1.782;2022-09-04T19:32:48;7.88;;;1.67;;
62736;SDS011;48787;46.494;-1.782;2022-09-04T19:37:58;6.07;;;1.55;;
62736;SDS011;48787;46.494;-1.782;2022-09-04T19:40:27;3.45;;;1.65;;
62736;SDS011;48787;46.494;-1.782;2022-09-04T19:42:59;5.22;;;1.50;;
62736;SDS011;48787;46.494;-1.782;2022-09-04T19:45:28;2.47;;;1.48;;
62736;SDS011;48787;46.494;-1.782;2022-09-04T19:50:55;2.95;;;1.33;;
62736;SDS011;48787;46.494;-1.782;2022-09-04T19:53:34;3.55;;;1.60;;
62736;SDS011;48787;46.494;-1.782;2022-09-04T19:58:45;2.55;;;1.40;;
62736;SDS011;48787;46.494;-1.782;2022-09-04T20:01:18;1.95;;;1.30;;
62736;SDS011;48787;46.494;-1.782;2022-09-04T20:03:52;2.47;;;1.63;;
62736;SDS011;48787;46.494;-1.782;2022-09-04T20:06:30;3.88;;;1.60;;
62736;SDS011;48787;46.494;-1.782;2022-09-04T20:09:01;2.22;;;1.27;;
62736;SDS011;48787;46.494;-1.782;2022-09-04T20:11:35;3.17;;;1.48;;
62736;SDS011;48787;46.494;-1.782;2022-09-04T20:14:10;2.33;;;1.35;;
62736;SDS011;48787;46.494;-1.782;2022-09-04T20:16:44;3.17;;;1.30;;
62736;SDS011;48787;46.494;-1.782;2022-09-04T20:21:50;1.73;;;1.10;;
62736;SDS011;48787;46.494;-1.782;2022-09-04T20:24:22;3.25;;;1.50;;
62736;SDS011;48787;46.494;-1.782;2022-09-04T20:34:45;2.38;;;1.20;;
62736;SDS011;48787;46.494;-1.782;2022-09-04T20:39:57;3.15;;;1.17;;
62736;SDS011;48787;46.494;-1.782;2022-09-04T20:42:28;4.22;;;1.20;;
62736;SDS011;48787;46.494;-1.782;2022-09-04T20:44:56;2.03;;;1.30;;
62736;SDS011;48787;46.494;-1.782;2022-09-04T20:47:28;2.28;;;1.27;;
62736;SDS011;48787;46.494;-1.782;2022-09-04T20:52:50;3.00;;;1.30;;
62736;SDS011;48787;46.494;-1.782;2022-09-04T20:55:36;1.98;;;1.02;;
62736;SDS011;48787;46.494;-1.782;2022-09-04T21:00:32;2.90;;;1.25;;
62736;SDS011;48787;46.494;-1.782;2022-09-04T21:03:10;2.28;;;1.65;;
62736;SDS011;48787;46.494;-1.782;2022-09-04T21:10:34;1.77;;;1.17;;
62736;SDS011;48787;46.494;-1.782;2022-09-04T21:13:10;2.85;;;1.25;;
62736;SDS011;48787;46.494;-1.782;2022-09-04T21:23:11;2.40;;;1.20;;
62736;SDS011;48787;46.494;-1.782;2022-09-04T21:51:35;1.58;;;1.23;;
62736;SDS011;48787;46.494;-1.782;2022-09-04T21:57:03;1.50;;;1.10;;
62736;SDS011;48787;46.494;-1.782;2022-09-04T22:15:30;3.17;;;1.30;;
62736;SDS011;48787;46.494;-1.782;2022-09-04T22:21:21;1.70;;;1.02;;
62736;SDS011;48787;46.494;-1.782;2022-09-04T22:26:15;3.55;;;1.20;;
62736;SDS011;48787;46.494;-1.782;2022-09-04T22:29:29;1.67;;;1.00;;
62736;SDS011;48787;46.494;-1.782;2022-09-04T22:31:42;2.10;;;1.20;;
62736;SDS011;48787;46.494;-1.782;2022-09-04T22:48:22;1.33;;;1.13;;
62736;SDS011;48787;46.494;-1.782;2022-09-04T22:55:54;2.78;;;1.10;;
62736;SDS011;48787;46.494;-1.782;2022-09-04T23:03:39;2.28;;;1.27;;
62736;SDS011;48787;46.494;-1.782;2022-09-04T23:11:38;2.17;;;1.05;;
62736;SDS011;48787;46.494;-1.782;2022-09-04T23:22:09;3.00;;;1.20;;
62736;SDS011;48787;46.494;-1.782;2022-09-04T23:27:36;1.05;;;0.88;;
62736;SDS011;48787;46.494;-1.782;2022-09-04T23:32:44;3.03;;;1.20;;
62736;SDS011;48787;46.494;-1.782;2022-09-04T23:40:42;1.70;;;1.10;;
62736;SDS011;48787;46.494;-1.782;2022-09-04T23:56:38;2.08;;;1.10;;
62736;SDS011;48787;46.494;-1.782;2022-09-04T23:59:12;1.33;;;0.88;;
